EZY9172 LGSK-LOWW
Flight info
| Callsign | EZY9172 |
|---|---|
| Flight time | 1h 44m |
| Altitude | 38000 |
| Route | TSL UL617 MAKED DCT LONTA UL608 DOLEV DCT OBUTI OBUTI2W |
| Aircraft | A20N/M-SDE2E3FGHIRWXY/LB1 |
Departure
| Time | 2026-05-01 10:05 |
|---|---|
| Airport | Skiathos Island National Airport (LGSK) |
Arrival
| Time | 2026-05-01 11:50 |
|---|---|
| Airport | Vienna International Airport (LOWW) |
| Time | Latitude | Longitude | Altitude | Speed | Heading |
|---|---|---|---|---|---|
| 2026-05-01 09:53 | 39.17948 | 23.50261 | 39 ft | 0 kts | 289° |
| 2026-05-01 09:55 | 39.17942 | 23.50284 | 39 ft | 4 kts | 285° |
| 2026-05-01 09:56 | 39.17937 | 23.50318 | 37 ft | 4 kts | 269° |
| 2026-05-01 09:56 | 39.17943 | 23.50348 | 37 ft | 4 kts | 214° |
| 2026-05-01 09:56 | 39.17948 | 23.50353 | 38 ft | 1 kts | 199° |
| 2026-05-01 09:59 | 39.17941 | 23.50350 | 37 ft | 4 kts | 198° |
| 2026-05-01 09:59 | 39.17897 | 23.50332 | 40 ft | 9 kts | 197° |
| 2026-05-01 09:59 | 39.17829 | 23.50301 | 39 ft | 9 kts | 199° |
| 2026-05-01 09:59 | 39.17775 | 23.50277 | 39 ft | 9 kts | 199° |
| 2026-05-01 10:00 | 39.17735 | 23.50266 | 39 ft | 0 kts | 180° |
| 2026-05-01 10:02 | 39.17725 | 23.50269 | 39 ft | 6 kts | 162° |
| 2026-05-01 10:02 | 39.17680 | 23.50331 | 40 ft | 11 kts | 154° |
| 2026-05-01 10:02 | 39.17593 | 23.50319 | 40 ft | 15 kts | 198° |
| 2026-05-01 10:02 | 39.17483 | 23.50269 | 39 ft | 19 kts | 200° |
| 2026-05-01 10:03 | 39.17342 | 23.50206 | 32 ft | 25 kts | 199° |
| 2026-05-01 10:03 | 39.17173 | 23.50130 | 22 ft | 23 kts | 200° |
| 2026-05-01 10:03 | 39.17063 | 23.50092 | 18 ft | 13 kts | 176° |
| 2026-05-01 10:03 | 39.17022 | 23.50075 | 11 ft | 5 kts | 260° |
| 2026-05-01 10:04 | 39.17042 | 23.50058 | 12 ft | 4 kts | 3° |
| 2026-05-01 10:04 | 39.17063 | 23.50074 | 15 ft | 3 kts | 34° |
| 2026-05-01 10:04 | 39.17079 | 23.50085 | 17 ft | 0 kts | 21° |
| 2026-05-01 10:04 | 39.17101 | 23.50095 | 18 ft | 23 kts | 19° |
| 2026-05-01 10:05 | 39.17516 | 23.50281 | 39 ft | 99 kts | 18° |
| 2026-05-01 10:05 | 39.18338 | 23.50644 | 282 ft | 135 kts | 20° |
| 2026-05-01 10:05 | 39.19242 | 23.51007 | 1070 ft | 139 kts | 17° |
| 2026-05-01 10:05 | 39.20240 | 23.51052 | 1927 ft | 151 kts | 358° |
| 2026-05-01 10:06 | 39.21324 | 23.50723 | 2516 ft | 167 kts | 353° |
| 2026-05-01 10:06 | 39.22485 | 23.50386 | 3178 ft | 175 kts | 355° |
| 2026-05-01 10:06 | 39.23706 | 23.50095 | 3811 ft | 186 kts | 355° |
| 2026-05-01 10:06 | 39.25050 | 23.49787 | 4273 ft | 205 kts | 355° |
| 2026-05-01 10:07 | 39.26524 | 23.49487 | 4726 ft | 226 kts | 355° |
| 2026-05-01 10:07 | 39.28161 | 23.49171 | 5228 ft | 248 kts | 355° |
| 2026-05-01 10:07 | 39.29899 | 23.48857 | 6057 ft | 254 kts | 355° |
| 2026-05-01 10:07 | 39.31661 | 23.48577 | 6968 ft | 258 kts | 354° |
| 2026-05-01 10:08 | 39.35317 | 23.48072 | 8609 ft | 267 kts | 341° |
| 2026-05-01 10:08 | 39.37003 | 23.47064 | 9491 ft | 269 kts | 329° |
| 2026-05-01 10:08 | 39.38638 | 23.45910 | 10316 ft | 273 kts | 328° |
| 2026-05-01 10:09 | 39.40346 | 23.44672 | 10776 ft | 292 kts | 328° |
| 2026-05-01 10:09 | 39.42197 | 23.43333 | 11048 ft | 316 kts | 328° |
| 2026-05-01 10:09 | 39.44157 | 23.41929 | 11614 ft | 325 kts | 329° |
| 2026-05-01 10:09 | 39.46149 | 23.40513 | 12438 ft | 329 kts | 329° |
| 2026-05-01 10:10 | 39.48170 | 23.39077 | 13218 ft | 333 kts | 329° |
| 2026-05-01 10:10 | 39.50217 | 23.37623 | 14018 ft | 337 kts | 329° |
| 2026-05-01 10:10 | 39.54365 | 23.34672 | 15449 ft | 343 kts | 328° |
| 2026-05-01 10:11 | 39.56472 | 23.33171 | 16170 ft | 348 kts | 328° |
| 2026-05-01 10:11 | 39.58603 | 23.31650 | 16867 ft | 351 kts | 328° |
| 2026-05-01 10:11 | 39.60753 | 23.30115 | 17541 ft | 355 kts | 328° |
| 2026-05-01 10:11 | 39.62931 | 23.28559 | 18177 ft | 359 kts | 328° |
| 2026-05-01 10:12 | 39.65127 | 23.26989 | 18793 ft | 362 kts | 328° |
| 2026-05-01 10:12 | 39.66591 | 23.25943 | 19213 ft | 363 kts | 328° |
| 2026-05-01 10:12 | 39.71764 | 23.22241 | 20597 ft | 368 kts | 327° |
| 2026-05-01 10:13 | 39.74015 | 23.20628 | 21170 ft | 371 kts | 327° |
| 2026-05-01 10:13 | 39.76278 | 23.19004 | 21742 ft | 373 kts | 327° |
| 2026-05-01 10:13 | 39.78557 | 23.17369 | 22319 ft | 375 kts | 327° |
| 2026-05-01 10:14 | 39.83167 | 23.14056 | 23425 ft | 381 kts | 326° |
| 2026-05-01 10:14 | 39.85496 | 23.12380 | 23951 ft | 384 kts | 326° |
| 2026-05-01 10:14 | 39.87835 | 23.10696 | 24433 ft | 385 kts | 326° |
| 2026-05-01 10:14 | 39.90186 | 23.09002 | 24881 ft | 387 kts | 326° |
| 2026-05-01 10:15 | 39.92548 | 23.07298 | 25342 ft | 389 kts | 326° |
| 2026-05-01 10:15 | 39.94927 | 23.05581 | 25791 ft | 391 kts | 326° |
| 2026-05-01 10:15 | 39.97315 | 23.03856 | 26225 ft | 393 kts | 326° |
| 2026-05-01 10:15 | 39.99718 | 23.02118 | 26646 ft | 395 kts | 326° |
| 2026-05-01 10:16 | 40.02099 | 23.00395 | 27047 ft | 397 kts | 326° |
| 2026-05-01 10:16 | 40.04529 | 22.98635 | 27472 ft | 399 kts | 326° |
| 2026-05-01 10:16 | 40.09406 | 22.95099 | 28244 ft | 403 kts | 326° |
| 2026-05-01 10:17 | 40.11868 | 22.93311 | 28620 ft | 405 kts | 326° |
| 2026-05-01 10:17 | 40.16825 | 22.89708 | 29357 ft | 409 kts | 326° |
| 2026-05-01 10:17 | 40.19318 | 22.87894 | 29696 ft | 411 kts | 326° |
| 2026-05-01 10:18 | 40.24331 | 22.84241 | 30345 ft | 414 kts | 326° |
| 2026-05-01 10:18 | 40.26862 | 22.82394 | 30616 ft | 417 kts | 326° |
| 2026-05-01 10:18 | 40.29370 | 22.80562 | 30833 ft | 419 kts | 326° |
| 2026-05-01 10:19 | 40.31927 | 22.78693 | 31089 ft | 422 kts | 326° |
| 2026-05-01 10:19 | 40.34494 | 22.76815 | 31358 ft | 424 kts | 326° |
| 2026-05-01 10:19 | 40.37072 | 22.74929 | 31678 ft | 424 kts | 326° |
| 2026-05-01 10:20 | 40.42226 | 22.71152 | 32357 ft | 424 kts | 326° |
| 2026-05-01 10:20 | 40.44807 | 22.69258 | 32697 ft | 424 kts | 326° |
| 2026-05-01 10:20 | 40.47385 | 22.67364 | 33028 ft | 424 kts | 326° |
| 2026-05-01 10:20 | 40.49093 | 22.66108 | 33222 ft | 424 kts | 326° |
| 2026-05-01 10:21 | 40.51670 | 22.64212 | 33545 ft | 424 kts | 326° |
| 2026-05-01 10:21 | 40.57659 | 22.59799 | 34251 ft | 424 kts | 326° |
| 2026-05-01 10:21 | 40.60234 | 22.57898 | 34503 ft | 424 kts | 326° |
| 2026-05-01 10:22 | 40.64512 | 22.54738 | 34905 ft | 424 kts | 326° |
| 2026-05-01 10:22 | 40.69606 | 22.50967 | 35363 ft | 423 kts | 326° |
| 2026-05-01 10:23 | 40.72174 | 22.49064 | 35580 ft | 423 kts | 326° |
| 2026-05-01 10:23 | 40.77309 | 22.45253 | 36010 ft | 423 kts | 326° |
| 2026-05-01 10:23 | 40.79876 | 22.43346 | 36224 ft | 423 kts | 326° |
| 2026-05-01 10:24 | 40.85010 | 22.39525 | 36624 ft | 423 kts | 326° |
| 2026-05-01 10:24 | 40.90074 | 22.35752 | 36996 ft | 423 kts | 326° |
| 2026-05-01 10:25 | 40.95198 | 22.31926 | 37373 ft | 423 kts | 326° |
| 2026-05-01 10:25 | 41.00323 | 22.28093 | 37706 ft | 423 kts | 326° |
| 2026-05-01 10:26 | 41.02882 | 22.26176 | 37887 ft | 423 kts | 326° |
| 2026-05-01 10:26 | 41.05405 | 22.24285 | 38056 ft | 422 kts | 326° |
| 2026-05-01 10:26 | 41.10524 | 22.20442 | 38225 ft | 422 kts | 326° |
| 2026-05-01 10:27 | 41.15628 | 22.16605 | 38235 ft | 421 kts | 326° |
| 2026-05-01 10:28 | 41.23287 | 22.10833 | 38239 ft | 422 kts | 326° |
| 2026-05-01 10:28 | 41.30928 | 22.05058 | 38233 ft | 423 kts | 326° |
| 2026-05-01 10:29 | 41.38622 | 21.99228 | 38236 ft | 424 kts | 326° |
| 2026-05-01 10:30 | 41.48871 | 21.91436 | 38235 ft | 424 kts | 326° |
| 2026-05-01 10:31 | 41.59097 | 21.83635 | 38234 ft | 424 kts | 326° |
| 2026-05-01 10:32 | 41.66799 | 21.77739 | 38236 ft | 425 kts | 326° |
| 2026-05-01 10:33 | 41.77048 | 21.69868 | 38258 ft | 426 kts | 326° |
| 2026-05-01 10:34 | 41.84765 | 21.63923 | 38266 ft | 425 kts | 326° |
| 2026-05-01 10:34 | 41.89876 | 21.59977 | 38266 ft | 424 kts | 326° |
| 2026-05-01 10:35 | 41.97544 | 21.54041 | 38267 ft | 424 kts | 326° |
| 2026-05-01 10:35 | 42.02615 | 21.50106 | 38262 ft | 424 kts | 326° |
| 2026-05-01 10:36 | 42.10274 | 21.44153 | 38264 ft | 423 kts | 326° |
| 2026-05-01 10:37 | 42.15090 | 21.39656 | 38261 ft | 418 kts | 317° |
| 2026-05-01 10:37 | 42.21189 | 21.31361 | 38248 ft | 415 kts | 308° |
| 2026-05-01 10:38 | 42.24941 | 21.25437 | 38256 ft | 415 kts | 308° |
| 2026-05-01 10:38 | 42.28692 | 21.19504 | 38250 ft | 415 kts | 308° |
| 2026-05-01 10:39 | 42.32406 | 21.13593 | 38266 ft | 415 kts | 308° |
| 2026-05-01 10:39 | 42.36134 | 21.07640 | 38274 ft | 415 kts | 308° |
| 2026-05-01 10:40 | 42.39863 | 21.01675 | 38275 ft | 415 kts | 308° |
| 2026-05-01 10:40 | 42.43591 | 20.95699 | 38278 ft | 415 kts | 308° |
| 2026-05-01 10:41 | 42.47325 | 20.89703 | 38293 ft | 416 kts | 308° |
| 2026-05-01 10:42 | 42.52891 | 20.80741 | 38283 ft | 415 kts | 308° |
| 2026-05-01 10:42 | 42.56595 | 20.74764 | 38282 ft | 413 kts | 308° |
| 2026-05-01 10:43 | 42.60292 | 20.68782 | 38274 ft | 413 kts | 308° |
| 2026-05-01 10:43 | 42.63985 | 20.62798 | 38273 ft | 413 kts | 308° |
| 2026-05-01 10:44 | 42.67668 | 20.56816 | 38265 ft | 412 kts | 308° |
| 2026-05-01 10:44 | 42.71339 | 20.50842 | 38260 ft | 411 kts | 308° |
| 2026-05-01 10:45 | 42.74996 | 20.44879 | 38259 ft | 410 kts | 307° |
| 2026-05-01 10:45 | 42.78619 | 20.38958 | 38254 ft | 409 kts | 307° |
| 2026-05-01 10:46 | 42.82297 | 20.33061 | 38259 ft | 409 kts | 311° |
| 2026-05-01 10:46 | 42.86561 | 20.27814 | 38276 ft | 418 kts | 320° |
| 2026-05-01 10:47 | 42.91161 | 20.22976 | 38268 ft | 416 kts | 319° |
| 2026-05-01 10:47 | 42.95745 | 20.18115 | 38279 ft | 417 kts | 319° |
| 2026-05-01 10:48 | 43.00333 | 20.13259 | 38276 ft | 418 kts | 319° |
| 2026-05-01 10:48 | 43.04905 | 20.08417 | 38283 ft | 418 kts | 319° |
| 2026-05-01 10:49 | 43.09502 | 20.03535 | 38281 ft | 418 kts | 319° |
| 2026-05-01 10:49 | 43.14104 | 19.98637 | 38289 ft | 419 kts | 319° |
| 2026-05-01 10:50 | 43.18710 | 19.93726 | 38288 ft | 419 kts | 319° |
| 2026-05-01 10:50 | 43.23317 | 19.88803 | 38295 ft | 420 kts | 319° |
| 2026-05-01 10:51 | 43.27891 | 19.83906 | 38287 ft | 420 kts | 319° |
| 2026-05-01 10:51 | 43.32500 | 19.78962 | 38287 ft | 420 kts | 319° |
| 2026-05-01 10:52 | 43.37106 | 19.74011 | 38301 ft | 420 kts | 319° |
| 2026-05-01 10:52 | 43.41714 | 19.69048 | 38294 ft | 421 kts | 319° |
| 2026-05-01 10:53 | 43.46315 | 19.64084 | 38297 ft | 420 kts | 319° |
| 2026-05-01 10:53 | 43.50898 | 19.59129 | 38301 ft | 419 kts | 319° |
| 2026-05-01 10:54 | 43.55456 | 19.54190 | 38299 ft | 420 kts | 319° |
| 2026-05-01 10:54 | 43.60039 | 19.49214 | 38302 ft | 420 kts | 319° |
| 2026-05-01 10:55 | 43.64630 | 19.44222 | 38296 ft | 419 kts | 319° |
| 2026-05-01 10:55 | 43.69198 | 19.39244 | 38298 ft | 419 kts | 319° |
| 2026-05-01 10:56 | 43.73768 | 19.34252 | 38298 ft | 419 kts | 319° |
| 2026-05-01 10:56 | 43.78345 | 19.29244 | 38300 ft | 419 kts | 319° |
| 2026-05-01 10:57 | 43.82879 | 19.24273 | 38298 ft | 418 kts | 319° |
| 2026-05-01 10:57 | 43.87435 | 19.19266 | 38298 ft | 418 kts | 319° |
| 2026-05-01 10:58 | 43.91992 | 19.14250 | 38300 ft | 417 kts | 319° |
| 2026-05-01 10:58 | 43.96536 | 19.09237 | 38304 ft | 418 kts | 319° |
| 2026-05-01 10:59 | 44.01092 | 19.04203 | 38305 ft | 418 kts | 319° |
| 2026-05-01 10:59 | 44.05642 | 18.99162 | 38309 ft | 419 kts | 319° |
| 2026-05-01 11:00 | 44.10201 | 18.94103 | 38316 ft | 419 kts | 319° |
| 2026-05-01 11:00 | 44.14764 | 18.89028 | 38322 ft | 420 kts | 319° |
| 2026-05-01 11:01 | 44.19308 | 18.83965 | 38328 ft | 421 kts | 319° |
| 2026-05-01 11:01 | 44.23888 | 18.78851 | 38336 ft | 421 kts | 319° |
| 2026-05-01 11:02 | 44.28462 | 18.73733 | 38346 ft | 422 kts | 319° |
| 2026-05-01 11:02 | 44.33050 | 18.68589 | 38351 ft | 423 kts | 319° |
| 2026-05-01 11:03 | 44.37639 | 18.63433 | 38348 ft | 422 kts | 319° |
| 2026-05-01 11:03 | 44.42218 | 18.58278 | 38345 ft | 423 kts | 319° |
| 2026-05-01 11:04 | 44.46778 | 18.53133 | 38346 ft | 424 kts | 319° |
| 2026-05-01 11:04 | 44.51371 | 18.47941 | 38345 ft | 424 kts | 319° |
| 2026-05-01 11:05 | 44.55966 | 18.42735 | 38353 ft | 424 kts | 320° |
| 2026-05-01 11:05 | 44.60535 | 18.37548 | 38352 ft | 425 kts | 320° |
| 2026-05-01 11:06 | 44.65130 | 18.32321 | 38358 ft | 426 kts | 320° |
| 2026-05-01 11:06 | 44.69731 | 18.27075 | 38365 ft | 426 kts | 320° |
| 2026-05-01 11:07 | 44.76637 | 18.19181 | 38372 ft | 427 kts | 320° |
| 2026-05-01 11:07 | 44.81236 | 18.13908 | 38355 ft | 425 kts | 320° |
| 2026-05-01 11:08 | 44.85825 | 18.08637 | 38370 ft | 425 kts | 320° |
| 2026-05-01 11:09 | 44.92717 | 18.00700 | 38375 ft | 426 kts | 320° |
| 2026-05-01 11:09 | 44.97275 | 17.95437 | 38376 ft | 426 kts | 320° |
| 2026-05-01 11:10 | 45.04156 | 17.87470 | 38370 ft | 426 kts | 321° |
| 2026-05-01 11:10 | 45.08741 | 17.82147 | 38374 ft | 426 kts | 321° |
| 2026-05-01 11:11 | 45.13319 | 17.76822 | 38382 ft | 426 kts | 321° |
| 2026-05-01 11:11 | 45.17128 | 17.72383 | 38381 ft | 426 kts | 321° |
| 2026-05-01 11:12 | 45.21701 | 17.67041 | 38380 ft | 426 kts | 321° |
| 2026-05-01 11:12 | 45.26272 | 17.61690 | 38382 ft | 426 kts | 321° |
| 2026-05-01 11:13 | 45.30844 | 17.56328 | 38376 ft | 426 kts | 321° |
| 2026-05-01 11:13 | 45.35380 | 17.50997 | 38373 ft | 426 kts | 321° |
| 2026-05-01 11:14 | 45.39943 | 17.45620 | 38375 ft | 426 kts | 321° |
| 2026-05-01 11:14 | 45.44503 | 17.40236 | 38375 ft | 426 kts | 321° |
| 2026-05-01 11:15 | 45.49060 | 17.34845 | 38375 ft | 426 kts | 321° |
| 2026-05-01 11:15 | 45.53614 | 17.29446 | 38372 ft | 425 kts | 321° |
| 2026-05-01 11:16 | 45.58163 | 17.24040 | 38377 ft | 425 kts | 321° |
| 2026-05-01 11:16 | 45.62711 | 17.18624 | 38373 ft | 425 kts | 321° |
| 2026-05-01 11:17 | 45.67229 | 17.13232 | 38372 ft | 426 kts | 321° |
| 2026-05-01 11:17 | 45.71772 | 17.07798 | 38370 ft | 425 kts | 321° |
| 2026-05-01 11:18 | 45.76317 | 17.02351 | 38366 ft | 426 kts | 321° |
| 2026-05-01 11:18 | 45.80855 | 16.96898 | 38369 ft | 426 kts | 321° |
| 2026-05-01 11:19 | 45.85392 | 16.91434 | 38367 ft | 426 kts | 322° |
| 2026-05-01 11:19 | 45.89901 | 16.85994 | 38365 ft | 426 kts | 322° |
| 2026-05-01 11:20 | 45.94444 | 16.80499 | 38365 ft | 427 kts | 322° |
| 2026-05-01 11:20 | 45.98983 | 16.75000 | 38365 ft | 427 kts | 322° |
| 2026-05-01 11:21 | 46.03527 | 16.69480 | 38367 ft | 427 kts | 322° |
| 2026-05-01 11:21 | 46.08072 | 16.63947 | 38364 ft | 427 kts | 322° |
| 2026-05-01 11:22 | 46.12542 | 16.58492 | 38369 ft | 428 kts | 322° |
| 2026-05-01 11:22 | 46.17112 | 16.52904 | 38365 ft | 428 kts | 322° |
| 2026-05-01 11:23 | 46.21622 | 16.47375 | 38378 ft | 429 kts | 322° |
| 2026-05-01 11:23 | 46.26169 | 16.41794 | 38374 ft | 429 kts | 322° |
| 2026-05-01 11:24 | 46.30717 | 16.36202 | 38378 ft | 430 kts | 322° |
| 2026-05-01 11:25 | 46.37616 | 16.27893 | 38364 ft | 427 kts | 330° |
| 2026-05-01 11:25 | 46.43044 | 16.24869 | 37451 ft | 418 kts | 354° |
| 2026-05-01 11:25 | 46.45930 | 16.24543 | 37091 ft | 414 kts | 359° |
| 2026-05-01 11:26 | 46.48812 | 16.24310 | 36595 ft | 415 kts | 357° |
| 2026-05-01 11:26 | 46.54586 | 16.23391 | 35259 ft | 419 kts | 354° |
| 2026-05-01 11:26 | 46.57439 | 16.22768 | 34608 ft | 419 kts | 354° |
| 2026-05-01 11:27 | 46.60320 | 16.22093 | 33851 ft | 419 kts | 354° |
| 2026-05-01 11:27 | 46.63224 | 16.21397 | 33189 ft | 416 kts | 353° |
| 2026-05-01 11:27 | 46.66039 | 16.20721 | 32509 ft | 415 kts | 354° |
| 2026-05-01 11:27 | 46.68888 | 16.20038 | 31815 ft | 414 kts | 354° |
| 2026-05-01 11:28 | 46.71715 | 16.19360 | 31289 ft | 409 kts | 354° |
| 2026-05-01 11:28 | 46.74511 | 16.18690 | 30751 ft | 405 kts | 354° |
| 2026-05-01 11:28 | 46.77276 | 16.18029 | 30190 ft | 401 kts | 354° |
| 2026-05-01 11:29 | 46.82702 | 16.16728 | 29147 ft | 389 kts | 354° |
| 2026-05-01 11:29 | 46.85359 | 16.16091 | 28643 ft | 384 kts | 354° |
| 2026-05-01 11:29 | 46.90601 | 16.14836 | 27888 ft | 390 kts | 354° |
| 2026-05-01 11:30 | 46.93338 | 16.14186 | 27349 ft | 404 kts | 354° |
| 2026-05-01 11:30 | 46.96096 | 16.13524 | 26803 ft | 407 kts | 354° |
| 2026-05-01 11:30 | 46.98894 | 16.12847 | 26239 ft | 406 kts | 354° |
| 2026-05-01 11:30 | 47.01670 | 16.12173 | 25673 ft | 402 kts | 354° |
| 2026-05-01 11:31 | 47.04415 | 16.11507 | 25122 ft | 398 kts | 354° |
| 2026-05-01 11:31 | 47.07142 | 16.10845 | 24563 ft | 394 kts | 354° |
| 2026-05-01 11:31 | 47.09828 | 16.10195 | 23977 ft | 391 kts | 354° |
| 2026-05-01 11:31 | 47.12502 | 16.09548 | 23427 ft | 386 kts | 354° |
| 2026-05-01 11:32 | 47.15130 | 16.08910 | 22902 ft | 380 kts | 354° |
| 2026-05-01 11:32 | 47.17724 | 16.08280 | 22360 ft | 375 kts | 354° |
| 2026-05-01 11:32 | 47.20278 | 16.07661 | 21850 ft | 370 kts | 354° |
| 2026-05-01 11:32 | 47.22810 | 16.07046 | 21324 ft | 366 kts | 354° |
| 2026-05-01 11:33 | 47.25309 | 16.06439 | 20812 ft | 362 kts | 354° |
| 2026-05-01 11:33 | 47.27776 | 16.05839 | 20309 ft | 358 kts | 354° |
| 2026-05-01 11:33 | 47.30218 | 16.05246 | 19806 ft | 354 kts | 354° |
| 2026-05-01 11:33 | 47.32640 | 16.04655 | 19313 ft | 351 kts | 354° |
| 2026-05-01 11:34 | 47.35020 | 16.04179 | 18813 ft | 347 kts | 360° |
| 2026-05-01 11:34 | 47.37409 | 16.04286 | 18295 ft | 341 kts | 9° |
| 2026-05-01 11:34 | 47.39703 | 16.04996 | 17884 ft | 338 kts | 18° |
| 2026-05-01 11:34 | 47.41957 | 16.06118 | 17447 ft | 343 kts | 20° |
| 2026-05-01 11:35 | 47.44215 | 16.07239 | 17023 ft | 340 kts | 19° |
| 2026-05-01 11:35 | 47.46437 | 16.08335 | 16594 ft | 335 kts | 19° |
| 2026-05-01 11:35 | 47.48645 | 16.09424 | 16275 ft | 331 kts | 19° |
| 2026-05-01 11:35 | 47.50793 | 16.10486 | 16162 ft | 319 kts | 19° |
| 2026-05-01 11:36 | 47.52858 | 16.11509 | 16053 ft | 306 kts | 20° |
| 2026-05-01 11:36 | 47.54860 | 16.12503 | 15671 ft | 303 kts | 20° |
| 2026-05-01 11:36 | 47.56858 | 16.13500 | 15221 ft | 303 kts | 20° |
| 2026-05-01 11:36 | 47.58854 | 16.14496 | 14805 ft | 301 kts | 19° |
| 2026-05-01 11:37 | 47.60834 | 16.15484 | 14335 ft | 300 kts | 19° |
| 2026-05-01 11:37 | 47.62808 | 16.16469 | 13887 ft | 298 kts | 19° |
| 2026-05-01 11:37 | 47.64740 | 16.17431 | 13467 ft | 296 kts | 19° |
| 2026-05-01 11:37 | 47.66692 | 16.18403 | 13013 ft | 295 kts | 20° |
| 2026-05-01 11:38 | 47.68638 | 16.19377 | 12538 ft | 294 kts | 20° |
| 2026-05-01 11:38 | 47.70573 | 16.20346 | 12145 ft | 293 kts | 20° |
| 2026-05-01 11:38 | 47.72497 | 16.21308 | 11730 ft | 291 kts | 20° |
| 2026-05-01 11:38 | 47.74416 | 16.22270 | 11291 ft | 291 kts | 20° |
| 2026-05-01 11:39 | 47.76262 | 16.23460 | 10894 ft | 287 kts | 31° |
| 2026-05-01 11:39 | 47.77843 | 16.25246 | 10522 ft | 284 kts | 44° |
| 2026-05-01 11:39 | 47.79199 | 16.27402 | 10038 ft | 285 kts | 47° |
| 2026-05-01 11:39 | 47.80541 | 16.29558 | 9607 ft | 283 kts | 47° |
| 2026-05-01 11:40 | 47.81878 | 16.31694 | 9218 ft | 280 kts | 46° |
| 2026-05-01 11:40 | 47.83185 | 16.33777 | 8818 ft | 271 kts | 46° |
| 2026-05-01 11:40 | 47.84434 | 16.35771 | 8433 ft | 262 kts | 47° |
| 2026-05-01 11:40 | 47.85662 | 16.37731 | 8046 ft | 255 kts | 46° |
| 2026-05-01 11:41 | 47.86855 | 16.39633 | 7663 ft | 248 kts | 46° |
| 2026-05-01 11:41 | 47.87939 | 16.41588 | 7287 ft | 243 kts | 57° |
| 2026-05-01 11:41 | 47.88665 | 16.43819 | 7006 ft | 237 kts | 70° |
| 2026-05-01 11:41 | 47.89099 | 16.46205 | 6803 ft | 239 kts | 75° |
| 2026-05-01 11:42 | 47.89452 | 16.48614 | 6539 ft | 237 kts | 81° |
| 2026-05-01 11:42 | 47.89244 | 16.51037 | 6192 ft | 242 kts | 109° |
| 2026-05-01 11:42 | 47.88240 | 16.53063 | 5833 ft | 249 kts | 139° |
| 2026-05-01 11:42 | 47.86674 | 16.54217 | 5416 ft | 254 kts | 158° |
| 2026-05-01 11:43 | 47.84995 | 16.55075 | 5018 ft | 255 kts | 158° |
| 2026-05-01 11:43 | 47.83404 | 16.56153 | 4708 ft | 249 kts | 139° |
| 2026-05-01 11:43 | 47.82348 | 16.58072 | 4321 ft | 242 kts | 109° |
| 2026-05-01 11:44 | 47.82537 | 16.62872 | 3513 ft | 235 kts | 66° |
| 2026-05-01 11:44 | 47.83327 | 16.64910 | 3175 ft | 229 kts | 41° |
| 2026-05-01 11:44 | 47.84614 | 16.66192 | 3003 ft | 218 kts | 23° |
| 2026-05-01 11:44 | 47.86100 | 16.66794 | 2988 ft | 228 kts | 6° |
| 2026-05-01 11:45 | 47.87695 | 16.66805 | 2988 ft | 229 kts | 355° |
| 2026-05-01 11:45 | 47.89247 | 16.66506 | 2987 ft | 219 kts | 352° |
| 2026-05-01 11:45 | 47.90709 | 16.66201 | 2985 ft | 205 kts | 352° |
| 2026-05-01 11:45 | 47.92125 | 16.65942 | 2986 ft | 208 kts | 352° |
| 2026-05-01 11:46 | 47.93578 | 16.65546 | 2989 ft | 215 kts | 347° |
| 2026-05-01 11:46 | 47.95011 | 16.64998 | 2986 ft | 207 kts | 345° |
| 2026-05-01 11:46 | 47.96350 | 16.64439 | 2984 ft | 193 kts | 345° |
| 2026-05-01 11:46 | 47.97597 | 16.63914 | 2960 ft | 180 kts | 344° |
| 2026-05-01 11:47 | 47.98800 | 16.63403 | 2779 ft | 178 kts | 344° |
| 2026-05-01 11:47 | 47.99992 | 16.62896 | 2497 ft | 178 kts | 345° |
| 2026-05-01 11:47 | 48.01163 | 16.62400 | 2237 ft | 173 kts | 345° |
| 2026-05-01 11:47 | 48.02304 | 16.61918 | 2007 ft | 172 kts | 344° |
| 2026-05-01 11:48 | 48.03438 | 16.61434 | 1777 ft | 168 kts | 343° |
| 2026-05-01 11:48 | 48.04527 | 16.60971 | 1522 ft | 155 kts | 345° |
| 2026-05-01 11:48 | 48.05526 | 16.60550 | 1319 ft | 145 kts | 344° |
| 2026-05-01 11:48 | 48.06480 | 16.60145 | 1119 ft | 141 kts | 343° |
| 2026-05-01 11:49 | 48.07401 | 16.59757 | 923 ft | 133 kts | 342° |
| 2026-05-01 11:49 | 48.08266 | 16.59389 | 745 ft | 130 kts | 342° |
| 2026-05-01 11:49 | 48.09172 | 16.59004 | 636 ft | 140 kts | 342° |
| 2026-05-01 11:49 | 48.10040 | 16.58629 | 618 ft | 107 kts | 343° |
| 2026-05-01 11:50 | 48.10564 | 16.58411 | 618 ft | 49 kts | 345° |
| 2026-05-01 11:50 | 48.10766 | 16.58226 | 622 ft | 28 kts | 313° |
| 2026-05-01 11:50 | 48.10860 | 16.58082 | 616 ft | 14 kts | 315° |
| 2026-05-01 11:50 | 48.10934 | 16.57984 | 610 ft | 15 kts | 328° |
| 2026-05-01 11:51 | 48.11037 | 16.57929 | 622 ft | 17 kts | 343° |
| 2026-05-01 11:51 | 48.11115 | 16.57843 | 617 ft | 15 kts | 299° |
| 2026-05-01 11:51 | 48.11163 | 16.57699 | 620 ft | 16 kts | 295° |
| 2026-05-01 11:51 | 48.11213 | 16.57538 | 610 ft | 18 kts | 296° |
| 2026-05-01 11:52 | 48.11270 | 16.57367 | 617 ft | 19 kts | 296° |
| 2026-05-01 11:52 | 48.11331 | 16.57180 | 621 ft | 21 kts | 296° |
| 2026-05-01 11:52 | 48.11396 | 16.56982 | 624 ft | 22 kts | 296° |
| 2026-05-01 11:52 | 48.11463 | 16.56773 | 616 ft | 23 kts | 296° |
| 2026-05-01 11:53 | 48.11534 | 16.56555 | 615 ft | 24 kts | 296° |
| 2026-05-01 11:53 | 48.11607 | 16.56331 | 618 ft | 24 kts | 296° |
| 2026-05-01 11:53 | 48.11684 | 16.56100 | 623 ft | 25 kts | 296° |
| 2026-05-01 11:53 | 48.11759 | 16.55861 | 618 ft | 23 kts | 296° |
| 2026-05-01 11:54 | 48.11816 | 16.55687 | 612 ft | 13 kts | 294° |
| 2026-05-01 11:54 | 48.11850 | 16.55664 | 613 ft | 6 kts | 9° |
| 2026-05-01 11:54 | 48.11883 | 16.55686 | 614 ft | 4 kts | 27° |
| 2026-05-01 11:54 | 48.11900 | 16.55698 | 618 ft | 1 kts | 26° |
| 2026-05-01 11:55 | 48.11901 | 16.55699 | 619 ft | 0 kts | 25° |